首页
METAR-TAF:

METAR-TAF

机场 :

比洛克西, 密西西比州, 美国

纬度: 30-25N, 经度: 088-55W, 海拔: 10米

当前天气观测

该预报发布于1小时和1分钟前的20:56 UTC
风速9节,风向南转西南
温度 17°C
湿度 39%
气压 1027 hPa
能見度: 16.1公里
天空无云

METAR: KBIX 072056Z AUTO 21009KT 10SM CLR 17/03 A3034 RMK AO2 SLP277 T01680031 56012

时间: 15:57 (21:57 UTC)

预报

该预报发布于42小时和19分钟前的03:38 UTC
预报有效从06日的 03点(UTC)到 07日的 09点(UTC)
风速9节,风向
能见度10公里或以上
多云层高于5000英尺
阴天层高于12000英尺
短暂存在
从 06日的 03点(UTC)到 06日的 10点(UTC)
风速12节,风向东转东北
能見度: 6000
散云层高于1000英尺
多云层高于2500英尺
小阵雨
成为
从 06日的 12点(UTC)到 06日的 13点(UTC)
风速15节,风向北转东北,有时为20节阵风
能見度: 0811
散云层高于2500英尺
多云层高于7000英尺

TAF: KBIX 060338Z 0603/0709 09009KT 9999 BKN050 OVC120 QNH3000INS TEMPO 0603/0610 06012KT 6000 -SHRA SCT010 BKN025 BECMG 0612/0613 03015G20KT 9999 NSW SCT025 BKN070 QNH2996INS TX18/0621Z TN12/0612Z LAST NO AMDS AFT 0605 NEXT 0811

超过4000个机场的气象观测和天气预报(METAR&TAF报告)。

可查询的气象台以黄色和红色小点在地图上表示。

将鼠标移到小点上方,可查看气象台名称。

然后点击查看天气观测和预报。

如需切换地图:点击带黑十字的绿色按钮放大地图;点击带横线的绿色按钮缩小地图;或者点击绿色箭头查看邻近地区的地图。


METAR-TAF: